sensor_id;sensor_type;location;lat;lon;timestamp;pressure;altitude;pressure_sealevel;temperature;humidity
59274;BME280;45044;41.572;24.730;2022-07-23T00:00:27;91820.03;;;16.22;100.00
59274;BME280;45044;41.572;24.730;2022-07-23T00:02:54;91794.47;;;16.04;100.00
59274;BME280;45044;41.572;24.730;2022-07-23T00:05:21;91813.22;;;16.17;100.00
59274;BME280;45044;41.572;24.730;2022-07-23T00:07:47;91819.38;;;16.11;100.00
59274;BME280;45044;41.572;24.730;2022-07-23T00:10:14;91811.78;;;16.13;100.00
59274;BME280;45044;41.572;24.730;2022-07-23T00:12:41;91816.75;;;16.07;100.00
59274;BME280;45044;41.572;24.730;2022-07-23T00:15:17;91809.63;;;16.00;100.00
59274;BME280;45044;41.572;24.730;2022-07-23T00:17:44;91811.91;;;16.02;100.00
59274;BME280;45044;41.572;24.730;2022-07-23T00:20:10;91814.09;;;16.07;100.00
59274;BME280;45044;41.572;24.730;2022-07-23T00:22:46;91810.06;;;15.95;100.00
59274;BME280;45044;41.572;24.730;2022-07-23T00:25:13;91809.66;;;15.97;100.00
59274;BME280;45044;41.572;24.730;2022-07-23T00:27:58;91805.09;;;15.97;100.00
59274;BME280;45044;41.572;24.730;2022-07-23T00:30:25;91807.06;;;15.89;100.00
59274;BME280;45044;41.572;24.730;2022-07-23T00:32:54;91809.31;;;15.91;100.00
59274;BME280;45044;41.572;24.730;2022-07-23T00:35:28;91801.84;;;15.82;100.00
59274;BME280;45044;41.572;24.730;2022-07-23T00:37:56;91806.06;;;15.76;100.00
59274;BME280;45044;41.572;24.730;2022-07-23T00:40:23;91801.91;;;15.75;100.00
59274;BME280;45044;41.572;24.730;2022-07-23T00:42:51;91796.66;;;15.71;100.00
59274;BME280;45044;41.572;24.730;2022-07-23T00:45:19;91800.84;;;15.65;100.00
59274;BME280;45044;41.572;24.730;2022-07-23T00:47:46;91801.59;;;15.69;100.00
59274;BME280;45044;41.572;24.730;2022-07-23T00:50:13;91803.06;;;15.74;100.00
59274;BME280;45044;41.572;24.730;2022-07-23T00:52:40;91804.53;;;15.78;100.00
59274;BME280;45044;41.572;24.730;2022-07-23T00:55:08;91772.22;;;15.52;100.00
59274;BME280;45044;41.572;24.730;2022-07-23T00:57:36;91806.13;;;15.68;100.00
59274;BME280;45044;41.572;24.730;2022-07-23T01:00:06;91800.13;;;15.64;100.00
59274;BME280;45044;41.572;24.730;2022-07-23T01:02:33;91803.91;;;15.63;100.00
59274;BME280;45044;41.572;24.730;2022-07-23T01:05:00;91809.94;;;15.67;100.00
59274;BME280;45044;41.572;24.730;2022-07-23T01:07:27;91808.13;;;15.57;100.00
59274;BME280;45044;41.572;24.730;2022-07-23T01:09:54;91804.34;;;15.58;100.00
59274;BME280;45044;41.572;24.730;2022-07-23T01:12:21;91805.56;;;15.50;100.00
59274;BME280;45044;41.572;24.730;2022-07-23T01:14:59;91803.72;;;15.43;100.00
59274;BME280;45044;41.572;24.730;2022-07-23T01:17:26;91800.78;;;15.30;100.00
59274;BME280;45044;41.572;24.730;2022-07-23T01:19:54;91807.88;;;15.40;100.00
59274;BME280;45044;41.572;24.730;2022-07-23T01:22:21;91804.91;;;15.35;100.00
59274;BME280;45044;41.572;24.730;2022-07-23T01:24:48;91814.84;;;15.19;100.00
59274;BME280;45044;41.572;24.730;2022-07-23T01:27:15;91755.72;;;14.84;100.00
59274;BME280;45044;41.572;24.730;2022-07-23T01:29:44;91818.25;;;15.20;100.00
59274;BME280;45044;41.572;24.730;2022-07-23T01:32:11;91806.09;;;15.30;100.00
59274;BME280;45044;41.572;24.730;2022-07-23T01:34:37;91804.50;;;15.36;100.00
59274;BME280;45044;41.572;24.730;2022-07-23T01:37:04;91801.81;;;15.43;100.00
59274;BME280;45044;41.572;24.730;2022-07-23T01:39:31;91801.81;;;15.43;100.00
59274;BME280;45044;41.572;24.730;2022-07-23T01:41:59;91801.16;;;15.32;100.00
59274;BME280;45044;41.572;24.730;2022-07-23T01:44:25;91802.41;;;15.16;100.00
59274;BME280;45044;41.572;24.730;2022-07-23T01:46:52;91801.66;;;15.12;100.00
59274;BME280;45044;41.572;24.730;2022-07-23T01:49:19;91802.41;;;15.13;100.00
59274;BME280;45044;41.572;24.730;2022-07-23T01:51:46;91800.56;;;15.09;100.00
59274;BME280;45044;41.572;24.730;2022-07-23T01:54:32;91804.31;;;15.12;100.00
59274;BME280;45044;41.572;24.730;2022-07-23T01:56:59;91803.88;;;15.21;100.00
59274;BME280;45044;41.572;24.730;2022-07-23T01:59:27;91800.06;;;15.26;100.00
59274;BME280;45044;41.572;24.730;2022-07-23T02:01:54;91803.47;;;15.26;100.00
59274;BME280;45044;41.572;24.730;2022-07-23T02:04:22;91803.94;;;15.14;100.00
59274;BME280;45044;41.572;24.730;2022-07-23T02:06:52;91800.16;;;15.11;100.00
59274;BME280;45044;41.572;24.730;2022-07-23T02:09:19;91805.13;;;15.05;100.00
59274;BME280;45044;41.572;24.730;2022-07-23T02:11:46;91798.78;;;14.95;100.00
59274;BME280;45044;41.572;24.730;2022-07-23T02:14:13;91808.56;;;14.99;100.00
59274;BME280;45044;41.572;24.730;2022-07-23T02:16:40;91807.25;;;14.65;100.00
59274;BME280;45044;41.572;24.730;2022-07-23T02:19:06;91801.47;;;14.81;100.00
59274;BME280;45044;41.572;24.730;2022-07-23T02:21:33;91797.72;;;14.82;100.00
59274;BME280;45044;41.572;24.730;2022-07-23T02:24:00;91809.81;;;14.83;100.00
59274;BME280;45044;41.572;24.730;2022-07-23T02:26:26;91792.44;;;14.75;100.00
59274;BME280;45044;41.572;24.730;2022-07-23T02:28:53;91806.81;;;14.73;100.00
59274;BME280;45044;41.572;24.730;2022-07-23T02:31:20;91804.91;;;14.70;100.00
59274;BME280;45044;41.572;24.730;2022-07-23T02:33:47;91806.47;;;14.68;100.00
59274;BME280;45044;41.572;24.730;2022-07-23T02:36:14;91796.31;;;14.55;100.00
59274;BME280;45044;41.572;24.730;2022-07-23T02:38:41;91810.66;;;14.58;100.00
59274;BME280;45044;41.572;24.730;2022-07-23T02:41:07;91806.53;;;14.57;100.00
59274;BME280;45044;41.572;24.730;2022-07-23T02:43:35;91805.75;;;14.60;100.00
59274;BME280;45044;41.572;24.730;2022-07-23T02:46:02;91815.53;;;14.63;100.00
59274;BME280;45044;41.572;24.730;2022-07-23T02:48:29;91806.47;;;14.64;100.00
59274;BME280;45044;41.572;24.730;2022-07-23T02:50:55;91811.41;;;14.62;100.00
59274;BME280;45044;41.572;24.730;2022-07-23T02:53:23;91815.19;;;14.61;100.00
59274;BME280;45044;41.572;24.730;2022-07-23T02:55:50;91811.81;;;14.57;100.00
59274;BME280;45044;41.572;24.730;2022-07-23T02:58:16;91812.97;;;14.48;100.00
59274;BME280;45044;41.572;24.730;2022-07-23T03:00:43;91824.75;;;14.36;100.00
59274;BME280;45044;41.572;24.730;2022-07-23T03:03:10;91801.00;;;14.18;100.00
59274;BME280;45044;41.572;24.730;2022-07-23T03:05:37;91824.75;;;14.36;100.00
59274;BME280;45044;41.572;24.730;2022-07-23T03:08:03;91828.16;;;14.37;100.00
59274;BME280;45044;41.572;24.730;2022-07-23T03:10:30;91825.88;;;14.39;100.00
59274;BME280;45044;41.572;24.730;2022-07-23T03:12:57;91820.91;;;14.45;100.00
59274;BME280;45044;41.572;24.730;2022-07-23T03:15:23;91822.06;;;14.44;100.00
59274;BME280;45044;41.572;24.730;2022-07-23T03:17:50;91826.56;;;14.51;100.00
59274;BME280;45044;41.572;24.730;2022-07-23T03:20:17;91829.97;;;14.47;100.00
59274;BME280;45044;41.572;24.730;2022-07-23T03:22:43;91830.78;;;14.41;100.00
59274;BME280;45044;41.572;24.730;2022-07-23T03:25:11;91834.91;;;14.42;100.00
59274;BME280;45044;41.572;24.730;2022-07-23T03:27:37;91831.13;;;14.46;100.00
59274;BME280;45044;41.572;24.730;2022-07-23T03:30:04;91830.00;;;14.44;100.00
59274;BME280;45044;41.572;24.730;2022-07-23T03:32:31;91837.19;;;14.36;100.00
59274;BME280;45044;41.572;24.730;2022-07-23T03:34:58;91836.88;;;14.30;100.00
59274;BME280;45044;41.572;24.730;2022-07-23T03:37:25;91830.44;;;14.28;100.00
59274;BME280;45044;41.572;24.730;2022-07-23T03:39:52;91837.59;;;14.31;100.00
59274;BME280;45044;41.572;24.730;2022-07-23T03:42:19;91837.97;;;14.33;100.00
59274;BME280;45044;41.572;24.730;2022-07-23T03:44:47;91837.56;;;14.38;100.00
59274;BME280;45044;41.572;24.730;2022-07-23T03:47:14;91841.72;;;14.46;100.00
59274;BME280;45044;41.572;24.730;2022-07-23T03:49:41;91831.88;;;14.43;100.00
59274;BME280;45044;41.572;24.730;2022-07-23T03:52:09;91839.41;;;14.48;100.00
59274;BME280;45044;41.572;24.730;2022-07-23T03:54:35;91837.91;;;14.51;100.00
59274;BME280;45044;41.572;24.730;2022-07-23T03:57:02;91833.34;;;14.55;100.00
59274;BME280;45044;41.572;24.730;2022-07-23T03:59:31;91828.06;;;14.59;100.00
59274;BME280;45044;41.572;24.730;2022-07-23T04:01:58;91835.91;;;14.73;100.00
59274;BME280;45044;41.572;24.730;2022-07-23T04:04:24;91838.94;;;14.76;100.00
59274;BME280;45044;41.572;24.730;2022-07-23T04:06:52;91838.53;;;14.81;100.00
59274;BME280;45044;41.572;24.730;2022-07-23T04:09:19;91840.41;;;14.88;100.00
59274;BME280;45044;41.572;24.730;2022-07-23T04:11:46;91840.78;;;14.90;100.00
59274;BME280;45044;41.572;24.730;2022-07-23T04:14:13;91836.25;;;14.90;100.00
59274;BME280;45044;41.572;24.730;2022-07-23T04:16:39;91842.25;;;14.94;100.00
59274;BME280;45044;41.572;24.730;2022-07-23T04:19:06;91847.13;;;15.00;100.00
59274;BME280;45044;41.572;24.730;2022-07-23T04:21:33;91834.69;;;14.96;100.00
59274;BME280;45044;41.572;24.730;2022-07-23T04:23:59;91839.91;;;15.07;100.00
59274;BME280;45044;41.572;24.730;2022-07-23T04:26:26;91843.97;;;15.19;100.00
59274;BME280;45044;41.572;24.730;2022-07-23T04:28:53;91840.91;;;15.28;100.00
59274;BME280;45044;41.572;24.730;2022-07-23T04:31:19;91835.94;;;15.34;100.00
59274;BME280;45044;41.572;24.730;2022-07-23T04:33:46;91845.34;;;15.42;100.00
59274;BME280;45044;41.572;24.730;2022-07-23T04:36:13;91838.06;;;15.50;100.00
59274;BME280;45044;41.572;24.730;2022-07-23T04:38:39;91838.75;;;15.62;100.00
59274;BME280;45044;41.572;24.730;2022-07-23T04:41:06;91838.69;;;15.69;100.00
59274;BME280;45044;41.572;24.730;2022-07-23T04:43:33;91835.19;;;15.79;100.00
59274;BME280;45044;41.572;24.730;2022-07-23T04:45:59;91842.72;;;15.85;100.00
59274;BME280;45044;41.572;24.730;2022-07-23T04:48:27;91832.44;;;15.90;100.00
59274;BME280;45044;41.572;24.730;2022-07-23T04:50:54;91838.41;;;16.02;100.00
59274;BME280;45044;41.572;24.730;2022-07-23T04:53:21;91833.78;;;16.10;100.00
59274;BME280;45044;41.572;24.730;2022-07-23T04:55:47;91840.47;;;17.16;100.00
59274;BME280;45044;41.572;24.730;2022-07-23T04:58:15;91836.88;;;19.37;100.00
59274;BME280;45044;41.572;24.730;2022-07-23T05:00:41;91837.75;;;21.12;100.00
59274;BME280;45044;41.572;24.730;2022-07-23T05:03:08;91833.53;;;22.12;92.46
59274;BME280;45044;41.572;24.730;2022-07-23T05:05:36;91828.72;;;23.38;79.49
59274;BME280;45044;41.572;24.730;2022-07-23T05:08:04;91828.59;;;24.39;71.68
59274;BME280;45044;41.572;24.730;2022-07-23T05:10:31;91828.28;;;25.18;68.15
59274;BME280;45044;41.572;24.730;2022-07-23T05:12:57;91833.84;;;25.82;63.40
59274;BME280;45044;41.572;24.730;2022-07-23T05:15:24;91832.56;;;26.17;60.52
59274;BME280;45044;41.572;24.730;2022-07-23T05:17:51;91830.50;;;26.66;56.64
59274;BME280;45044;41.572;24.730;2022-07-23T05:20:18;91834.31;;;27.56;53.75
59274;BME280;45044;41.572;24.730;2022-07-23T05:22:45;91832.34;;;28.34;50.94
59274;BME280;45044;41.572;24.730;2022-07-23T05:25:12;91827.91;;;28.85;48.34
59274;BME280;45044;41.572;24.730;2022-07-23T05:27:39;91819.63;;;29.59;45.51
59274;BME280;45044;41.572;24.730;2022-07-23T05:30:06;91831.13;;;29.53;45.31
59274;BME280;45044;41.572;24.730;2022-07-23T05:32:33;91824.91;;;29.41;45.56
59274;BME280;45044;41.572;24.730;2022-07-23T05:35:00;91829.56;;;29.73;44.15
59274;BME280;45044;41.572;24.730;2022-07-23T05:37:26;91817.03;;;29.82;43.61
59274;BME280;45044;41.572;24.730;2022-07-23T05:39:53;91810.72;;;29.52;44.28
59274;BME280;45044;41.572;24.730;2022-07-23T05:42:21;91815.25;;;29.67;43.79
59274;BME280;45044;41.572;24.730;2022-07-23T05:44:48;91818.31;;;29.92;43.17
59274;BME280;45044;41.572;24.730;2022-07-23T05:47:14;91811.44;;;29.97;43.16
59274;BME280;45044;41.572;24.730;2022-07-23T05:49:41;91814.94;;;30.15;42.76
59274;BME280;45044;41.572;24.730;2022-07-23T05:52:08;91816.56;;;31.71;40.08
59274;BME280;45044;41.572;24.730;2022-07-23T05:54:35;91813.97;;;32.19;38.64
59274;BME280;45044;41.572;24.730;2022-07-23T05:57:02;91808.13;;;32.88;37.02
59274;BME280;45044;41.572;24.730;2022-07-23T05:59:30;91812.63;;;33.72;34.55
59274;BME280;45044;41.572;24.730;2022-07-23T06:01:56;91807.31;;;34.04;33.23
59274;BME280;45044;41.572;24.730;2022-07-23T06:04:23;91807.44;;;34.57;32.94
59274;BME280;45044;41.572;24.730;2022-07-23T06:06:50;91809.72;;;35.05;32.40
59274;BME280;45044;41.572;24.730;2022-07-23T06:09:17;91800.28;;;35.52;32.29
59274;BME280;45044;41.572;24.730;2022-07-23T06:11:48;91799.59;;;35.79;30.48
59274;BME280;45044;41.572;24.730;2022-07-23T06:14:15;91798.22;;;35.86;30.51
59274;BME280;45044;41.572;24.730;2022-07-23T06:16:42;91796.19;;;35.72;30.25
59274;BME280;45044;41.572;24.730;2022-07-23T06:19:09;91798.47;;;36.36;30.43
59274;BME280;45044;41.572;24.730;2022-07-23T06:21:35;91799.78;;;36.57;29.41
59274;BME280;45044;41.572;24.730;2022-07-23T06:24:13;91796.53;;;36.93;29.02
59274;BME280;45044;41.572;24.730;2022-07-23T06:26:40;91784.75;;;37.78;27.80
59274;BME280;45044;41.572;24.730;2022-07-23T06:29:07;91786.31;;;37.95;27.07
59274;BME280;45044;41.572;24.730;2022-07-23T06:31:34;91783.59;;;38.55;27.00
59274;BME280;45044;41.572;24.730;2022-07-23T06:34:01;91791.53;;;38.83;26.20
59274;BME280;45044;41.572;24.730;2022-07-23T06:36:27;91788.06;;;38.90;25.97
59274;BME280;45044;41.572;24.730;2022-07-23T06:38:54;91779.75;;;38.51;25.88
59274;BME280;45044;41.572;24.730;2022-07-23T06:41:21;91773.63;;;39.13;26.13
59274;BME280;45044;41.572;24.730;2022-07-23T06:43:49;91780.78;;;39.32;26.02
59274;BME280;45044;41.572;24.730;2022-07-23T06:46:16;91771.97;;;39.72;26.08
59274;BME280;45044;41.572;24.730;2022-07-23T06:48:43;91784.06;;;39.14;25.69
59274;BME280;45044;41.572;24.730;2022-07-23T06:51:10;91766.13;;;38.82;26.67
59274;BME280;45044;41.572;24.730;2022-07-23T06:53:37;91779.31;;;39.15;26.41
59274;BME280;45044;41.572;24.730;2022-07-23T06:56:07;91769.41;;;39.74;26.26
59274;BME280;45044;41.572;24.730;2022-07-23T06:58:33;91777.28;;;40.35;25.09
59274;BME280;45044;41.572;24.730;2022-07-23T07:01:01;91765.84;;;40.80;24.17
59274;BME280;45044;41.572;24.730;2022-07-23T07:03:28;91762.41;;;40.71;23.35
59274;BME280;45044;41.572;24.730;2022-07-23T07:05:55;91763.44;;;40.84;23.87
59274;BME280;45044;41.572;24.730;2022-07-23T07:08:24;91754.25;;;40.07;25.41
59274;BME280;45044;41.572;24.730;2022-07-23T07:10:51;91760.00;;;40.42;24.29
59274;BME280;45044;41.572;24.730;2022-07-23T07:13:18;91756.31;;;40.47;24.78
59274;BME280;45044;41.572;24.730;2022-07-23T07:15:44;91755.34;;;40.86;25.31
59274;BME280;45044;41.572;24.730;2022-07-23T07:18:11;91756.47;;;40.83;24.00
59274;BME280;45044;41.572;24.730;2022-07-23T07:20:38;91750.69;;;40.71;24.57
59274;BME280;45044;41.572;24.730;2022-07-23T07:23:04;91751.13;;;41.36;23.10
59274;BME280;45044;41.572;24.730;2022-07-23T07:25:31;91747.13;;;41.90;22.51
59274;BME280;45044;41.572;24.730;2022-07-23T07:27:58;91741.75;;;42.10;22.45
59274;BME280;45044;41.572;24.730;2022-07-23T07:30:25;91745.56;;;41.79;23.47
59274;BME280;45044;41.572;24.730;2022-07-23T07:32:59;91743.69;;;41.47;24.29
59274;BME280;45044;41.572;24.730;2022-07-23T07:35:25;91745.44;;;41.34;24.56
59274;BME280;45044;41.572;24.730;2022-07-23T07:37:52;91736.81;;;41.30;24.76
59274;BME280;45044;41.572;24.730;2022-07-23T07:40:19;91739.31;;;41.79;25.04
59274;BME280;45044;41.572;24.730;2022-07-23T07:42:48;91727.06;;;38.60;27.80
59274;BME280;45044;41.572;24.730;2022-07-23T07:45:15;91735.75;;;37.45;29.70
59274;BME280;45044;41.572;24.730;2022-07-23T07:47:42;91728.50;;;37.05;31.25
59274;BME280;45044;41.572;24.730;2022-07-23T07:50:09;91737.44;;;37.85;29.42
59274;BME280;45044;41.572;24.730;2022-07-23T07:52:38;91730.78;;;38.18;28.31
59274;BME280;45044;41.572;24.730;2022-07-23T07:55:06;91735.34;;;38.07;31.22
59274;BME280;45044;41.572;24.730;2022-07-23T07:57:35;91720.31;;;37.63;28.22
59274;BME280;45044;41.572;24.730;2022-07-23T08:00:06;91722.44;;;36.99;28.36
59274;BME280;45044;41.572;24.730;2022-07-23T08:02:45;91726.81;;;35.76;28.79
59274;BME280;45044;41.572;24.730;2022-07-23T08:05:13;91725.66;;;35.57;27.13
59274;BME280;45044;41.572;24.730;2022-07-23T08:07:40;91729.66;;;35.29;26.29
59274;BME280;45044;41.572;24.730;2022-07-23T08:10:08;91725.97;;;35.27;28.47
59274;BME280;45044;41.572;24.730;2022-07-23T08:12:47;91721.09;;;35.19;28.38
59274;BME280;45044;41.572;24.730;2022-07-23T08:15:16;91721.41;;;34.17;29.24
59274;BME280;45044;41.572;24.730;2022-07-23T08:17:44;91717.13;;;34.41;29.05
59274;BME280;45044;41.572;24.730;2022-07-23T08:20:13;91718.38;;;34.01;29.86
59274;BME280;45044;41.572;24.730;2022-07-23T08:22:50;91724.44;;;32.94;31.01
59274;BME280;45044;41.572;24.730;2022-07-23T08:25:27;91721.06;;;32.57;32.61
59274;BME280;45044;41.572;24.730;2022-07-23T08:27:55;91727.69;;;31.65;32.34
59274;BME280;45044;41.572;24.730;2022-07-23T08:30:22;91718.91;;;31.96;31.00
59274;BME280;45044;41.572;24.730;2022-07-23T08:35:35;91731.03;;;30.83;31.52
59274;BME280;45044;41.572;24.730;2022-07-23T08:38:05;91729.50;;;31.23;31.62
59274;BME280;45044;41.572;24.730;2022-07-23T08:40:36;91719.94;;;30.64;32.96
59274;BME280;45044;41.572;24.730;2022-07-23T08:43:11;91713.78;;;30.69;32.20
59274;BME280;45044;41.572;24.730;2022-07-23T08:45:44;91711.31;;;30.94;34.12
59274;BME280;45044;41.572;24.730;2022-07-23T08:48:13;91725.06;;;31.25;32.15
59274;BME280;45044;41.572;24.730;2022-07-23T08:50:46;91730.72;;;31.27;35.37
59274;BME280;45044;41.572;24.730;2022-07-23T08:53:14;91719.91;;;31.10;35.77
59274;BME280;45044;41.572;24.730;2022-07-23T08:56:00;91730.03;;;30.98;35.80
59274;BME280;45044;41.572;24.730;2022-07-23T08:58:30;91722.38;;;30.39;35.28
59274;BME280;45044;41.572;24.730;2022-07-23T09:00:58;91720.38;;;30.28;33.69
59274;BME280;45044;41.572;24.730;2022-07-23T09:05:54;91730.53;;;30.51;34.62
59274;BME280;45044;41.572;24.730;2022-07-23T09:08:33;91726.34;;;30.95;34.20
59274;BME280;45044;41.572;24.730;2022-07-23T09:11:02;91726.25;;;30.04;35.88
59274;BME280;45044;41.572;24.730;2022-07-23T09:13:31;91719.19;;;30.64;36.10
59274;BME280;45044;41.572;24.730;2022-07-23T09:16:01;91716.94;;;31.19;34.26
59274;BME280;45044;41.572;24.730;2022-07-23T09:21:30;91710.03;;;31.18;33.94
59274;BME280;45044;41.572;24.730;2022-07-23T09:24:06;91713.25;;;30.94;35.05
59274;BME280;45044;41.572;24.730;2022-07-23T09:26:41;91710.81;;;30.62;36.11
59274;BME280;45044;41.572;24.730;2022-07-23T09:34:16;91707.53;;;30.17;35.76
59274;BME280;45044;41.572;24.730;2022-07-23T09:36:46;91703.66;;;30.87;35.48
59274;BME280;45044;41.572;24.730;2022-07-23T09:39:15;91700.94;;;30.70;34.89
59274;BME280;45044;41.572;24.730;2022-07-23T09:41:44;91704.66;;;30.90;35.34
59274;BME280;45044;41.572;24.730;2022-07-23T09:44:21;91709.97;;;31.30;35.15
59274;BME280;45044;41.572;24.730;2022-07-23T09:46:58;91706.78;;;31.31;35.44
59274;BME280;45044;41.572;24.730;2022-07-23T09:49:27;91690.66;;;31.62;33.78
59274;BME280;45044;41.572;24.730;2022-07-23T09:52:00;91699.63;;;31.99;36.14
59274;BME280;45044;41.572;24.730;2022-07-23T09:56:59;91707.75;;;32.05;35.95
59274;BME280;45044;41.572;24.730;2022-07-23T09:59:29;91700.06;;;32.15;36.29
59274;BME280;45044;41.572;24.730;2022-07-23T10:01:57;91706.69;;;31.66;34.19
59274;BME280;45044;41.572;24.730;2022-07-23T10:04:28;91690.97;;;32.01;35.30
59274;BME280;45044;41.572;24.730;2022-07-23T10:06:59;91693.94;;;32.39;32.51
59274;BME280;45044;41.572;24.730;2022-07-23T10:09:34;91682.72;;;32.55;34.75
59274;BME280;45044;41.572;24.730;2022-07-23T10:12:05;91687.38;;;32.23;37.28
59274;BME280;45044;41.572;24.730;2022-07-23T10:14:34;91684.06;;;32.73;34.69
59274;BME280;45044;41.572;24.730;2022-07-23T10:17:02;91668.88;;;32.58;34.71
59274;BME280;45044;41.572;24.730;2022-07-23T10:19:31;91682.41;;;31.85;32.74
59274;BME280;45044;41.572;24.730;2022-07-23T10:22:01;91667.22;;;32.07;32.61
59274;BME280;45044;41.572;24.730;2022-07-23T10:30:20;91666.63;;;32.26;35.29
59274;BME280;45044;41.572;24.730;2022-07-23T10:37:45;91662.59;;;31.31;34.26
59274;BME280;45044;41.572;24.730;2022-07-23T10:40:18;91661.47;;;31.68;35.34
59274;BME280;45044;41.572;24.730;2022-07-23T10:42:51;91667.22;;;31.53;34.49
59274;BME280;45044;41.572;24.730;2022-07-23T10:47:52;91659.69;;;31.17;34.85
59274;BME280;45044;41.572;24.730;2022-07-23T10:50:28;91642.97;;;31.02;35.87
59274;BME280;45044;41.572;24.730;2022-07-23T10:53:11;91656.41;;;31.48;36.13
59274;BME280;45044;41.572;24.730;2022-07-23T10:55:45;91652.09;;;31.70;36.66
59274;BME280;45044;41.572;24.730;2022-07-23T10:58:19;91646.03;;;32.00;34.75
59274;BME280;45044;41.572;24.730;2022-07-23T11:00:48;91646.69;;;31.70;33.69
59274;BME280;45044;41.572;24.730;2022-07-23T11:03:42;91645.81;;;31.86;34.39
59274;BME280;45044;41.572;24.730;2022-07-23T11:06:22;91635.63;;;32.04;35.21
59274;BME280;45044;41.572;24.730;2022-07-23T11:09:57;91635.63;;;32.04;34.37
59274;BME280;45044;41.572;24.730;2022-07-23T11:17:31;91631.38;;;31.66;34.73
59274;BME280;45044;41.572;24.730;2022-07-23T11:22:39;91632.63;;;31.65;36.68
59274;BME280;45044;41.572;24.730;2022-07-23T11:25:06;91636.44;;;31.87;35.00
59274;BME280;45044;41.572;24.730;2022-07-23T11:27:41;91630.44;;;32.06;36.51
59274;BME280;45044;41.572;24.730;2022-07-23T11:30:10;91634.84;;;31.61;34.27
59274;BME280;45044;41.572;24.730;2022-07-23T11:32:39;91631.25;;;31.89;33.55
59274;BME280;45044;41.572;24.730;2022-07-23T11:35:25;91631.81;;;31.76;37.19
59274;BME280;45044;41.572;24.730;2022-07-23T11:37:54;91635.00;;;31.15;34.96
59274;BME280;45044;41.572;24.730;2022-07-23T11:40:28;91624.34;;;31.83;34.78
59274;BME280;45044;41.572;24.730;2022-07-23T11:43:05;91628.91;;;32.11;37.26
59274;BME280;45044;41.572;24.730;2022-07-23T11:45:47;91624.53;;;32.33;33.88
59274;BME280;45044;41.572;24.730;2022-07-23T11:48:19;91625.50;;;32.66;34.88
59274;BME280;45044;41.572;24.730;2022-07-23T11:50:48;91636.00;;;32.81;32.83
59274;BME280;45044;41.572;24.730;2022-07-23T11:53:31;91637.13;;;32.36;33.26
59274;BME280;45044;41.572;24.730;2022-07-23T11:56:10;91630.84;;;32.47;32.64
59274;BME280;45044;41.572;24.730;2022-07-23T11:58:38;91631.69;;;32.36;33.74
59274;BME280;45044;41.572;24.730;2022-07-23T12:01:05;91635.19;;;31.88;34.23
59274;BME280;45044;41.572;24.730;2022-07-23T12:03:49;91633.53;;;31.74;34.53
59274;BME280;45044;41.572;24.730;2022-07-23T12:06:16;91631.31;;;31.78;34.02
59274;BME280;45044;41.572;24.730;2022-07-23T12:08:43;91637.31;;;31.59;32.66
59274;BME280;45044;41.572;24.730;2022-07-23T12:11:12;91630.16;;;31.62;35.31
59274;BME280;45044;41.572;24.730;2022-07-23T12:13:40;91629.84;;;31.77;32.17
59274;BME280;45044;41.572;24.730;2022-07-23T12:16:08;91625.50;;;31.57;32.22
59274;BME280;45044;41.572;24.730;2022-07-23T12:18:35;91627.81;;;31.29;33.13
59274;BME280;45044;41.572;24.730;2022-07-23T12:21:04;91625.81;;;31.36;34.55
59274;BME280;45044;41.572;24.730;2022-07-23T12:23:33;91623.69;;;31.11;32.99
59274;BME280;45044;41.572;24.730;2022-07-23T12:26:02;91617.34;;;30.68;34.64
59274;BME280;45044;41.572;24.730;2022-07-23T12:28:32;91629.69;;;30.75;33.92
59274;BME280;45044;41.572;24.730;2022-07-23T12:31:00;91623.81;;;30.31;33.92
59274;BME280;45044;41.572;24.730;2022-07-23T12:33:32;91631.16;;;30.59;34.89
59274;BME280;45044;41.572;24.730;2022-07-23T12:36:01;91627.69;;;30.76;32.99
59274;BME280;45044;41.572;24.730;2022-07-23T12:38:36;91613.09;;;31.07;32.76
59274;BME280;45044;41.572;24.730;2022-07-23T12:41:03;91619.41;;;31.33;35.21
59274;BME280;45044;41.572;24.730;2022-07-23T12:43:38;91615.16;;;31.55;37.06
59274;BME280;45044;41.572;24.730;2022-07-23T12:48:39;91622.84;;;31.45;33.73
59274;BME280;45044;41.572;24.730;2022-07-23T12:51:21;91613.13;;;31.61;34.40
59274;BME280;45044;41.572;24.730;2022-07-23T12:56:28;91613.38;;;30.98;34.44
59274;BME280;45044;41.572;24.730;2022-07-23T12:58:58;91608.44;;;30.96;34.07
59274;BME280;45044;41.572;24.730;2022-07-23T13:01:32;91603.97;;;31.05;34.87
59274;BME280;45044;41.572;24.730;2022-07-23T13:04:05;91598.03;;;31.12;32.16
59274;BME280;45044;41.572;24.730;2022-07-23T13:06:47;91596.81;;;31.07;32.00
59274;BME280;45044;41.572;24.730;2022-07-23T13:09:28;91595.84;;;30.99;33.35
59274;BME280;45044;41.572;24.730;2022-07-23T13:11:59;91601.88;;;30.46;34.62
59274;BME280;45044;41.572;24.730;2022-07-23T13:14:26;91602.59;;;30.46;33.50
59274;BME280;45044;41.572;24.730;2022-07-23T13:16:55;91601.13;;;30.57;33.28
59274;BME280;45044;41.572;24.730;2022-07-23T13:19:25;91601.06;;;30.68;34.53
59274;BME280;45044;41.572;24.730;2022-07-23T13:21:54;91604.03;;;30.88;34.53
59274;BME280;45044;41.572;24.730;2022-07-23T13:24:21;91597.41;;;30.54;34.80
59274;BME280;45044;41.572;24.730;2022-07-23T13:26:48;91598.41;;;30.34;35.08
59274;BME280;45044;41.572;24.730;2022-07-23T13:29:19;91605.78;;;30.22;36.54
59274;BME280;45044;41.572;24.730;2022-07-23T13:31:47;91600.13;;;30.14;36.72
59274;BME280;45044;41.572;24.730;2022-07-23T13:34:17;91603.09;;;30.16;36.34
59274;BME280;45044;41.572;24.730;2022-07-23T13:36:45;91602.34;;;30.04;35.92